createdAt,value
2018-08-20T00:02:39.025Z,80.96
2018-08-20T00:07:23.125Z,83.46
2018-08-20T00:12:11.246Z,83.21
2018-08-20T00:16:54.775Z,83.02
2018-08-20T00:21:38.185Z,83.47
2018-08-20T00:26:21.789Z,83.92
2018-08-20T00:31:05.122Z,81.61
2018-08-20T00:35:48.581Z,84.49
2018-08-20T00:40:32.008Z,83.92
2018-08-20T00:45:16.622Z,83.71
2018-08-20T00:50:00.996Z,82.72
2018-08-20T00:54:45.536Z,82.95
2018-08-20T00:59:29.034Z,82.74
2018-08-20T01:04:12.390Z,82.54
2018-08-20T01:08:55.998Z,83.59
2018-08-20T01:13:39.488Z,83.22
2018-08-20T01:18:26.734Z,82.96
2018-08-20T01:23:10.113Z,84.06
2018-08-20T01:27:53.561Z,82.89
2018-08-20T01:32:36.995Z,82.51
2018-08-20T01:37:21.607Z,83.30
2018-08-20T01:42:04.946Z,82.68
2018-08-20T01:46:52.057Z,82.06
2018-08-20T01:51:35.366Z,82.52
2018-08-20T01:56:18.797Z,82.71
2018-08-20T02:01:02.018Z,82.53
2018-08-20T02:05:48.781Z,81.78
2018-08-20T02:10:32.112Z,81.55
2018-08-20T02:15:16.723Z,81.69
2018-08-20T02:20:00.022Z,81.68
2018-08-20T02:24:44.390Z,81.78
2018-08-20T02:29:27.812Z,81.41
2018-08-20T02:34:11.268Z,81.81
2018-08-20T02:38:54.811Z,82.38
2018-08-20T02:43:38.209Z,82.22
2018-08-20T02:48:21.816Z,82.76
2018-08-20T02:53:05.058Z,81.99
2018-08-20T02:57:48.566Z,80.87
2018-08-20T03:02:31.976Z,82.05
2018-08-20T03:07:15.415Z,82.18
2018-08-20T03:11:58.785Z,80.85
2018-08-20T03:16:43.278Z,81.98
2018-08-20T03:21:26.720Z,81.46
2018-08-20T03:26:10.457Z,81.24
2018-08-20T03:30:53.877Z,81.33
2018-08-20T03:35:37.514Z,81.66
2018-08-20T03:40:20.766Z,81.22
2018-08-20T03:45:07.607Z,81.89
2018-08-20T03:49:51.400Z,82.11
2018-08-20T03:54:34.915Z,82.18
2018-08-20T03:59:30.630Z,80.53
2018-08-20T04:04:14.320Z,81.47
2018-08-20T04:08:57.588Z,81.46
2018-08-20T04:13:41.026Z,80.66
2018-08-20T04:18:24.528Z,81.24
2018-08-20T04:23:07.833Z,82.10
2018-08-20T04:27:51.288Z,80.62
2018-08-20T04:32:34.732Z,81.77
2018-08-20T04:37:18.373Z,83.73
2018-08-20T04:42:05.160Z,82.73
2018-08-20T04:46:48.975Z,83.25
2018-08-20T04:51:32.562Z,84.71
2018-08-20T04:56:16.114Z,84.27
2018-08-20T05:01:02.455Z,85.73
2018-08-20T05:05:47.208Z,85.42
2018-08-20T05:10:30.697Z,84.63
2018-08-20T05:15:15.177Z,86.38
2018-08-20T05:19:58.424Z,86.15
2018-08-20T05:24:43.010Z,85.57
2018-08-20T05:29:26.518Z,86.00
2018-08-20T05:34:10.774Z,86.38
2018-08-20T05:38:54.350Z,85.12
2018-08-20T05:43:37.621Z,84.34
2018-08-20T05:48:21.320Z,84.03
2018-08-20T05:53:06.001Z,84.10
2018-08-20T05:57:49.589Z,83.43
2018-08-20T06:02:32.919Z,83.63
2018-08-20T06:07:16.298Z,83.50
2018-08-20T06:11:59.504Z,83.25
2018-08-20T06:16:42.946Z,82.55
2018-08-20T06:21:26.303Z,83.00
2018-08-20T06:26:10.071Z,80.48
2018-08-20T06:30:53.563Z,79.99
2018-08-20T06:35:37.175Z,80.71
2018-08-20T06:40:20.577Z,76.72
2018-08-20T06:45:06.247Z,73.05
2018-08-20T06:49:49.646Z,72.31
2018-08-20T06:54:33.465Z,75.60
2018-08-20T06:59:16.751Z,67.48
2018-08-20T07:04:00.177Z,63.83
2018-08-20T07:08:44.296Z,59.40
2018-08-20T07:13:33.822Z,60.26
2018-08-20T07:18:17.380Z,59.65
2018-08-20T07:23:00.757Z,61.14
2018-08-20T07:27:44.119Z,57.43
2018-08-20T07:32:27.580Z,54.17
2018-08-20T07:37:13.472Z,61.00
2018-08-20T07:41:56.778Z,56.04
2018-08-20T07:46:40.263Z,55.07
2018-08-20T07:51:23.649Z,53.53
2018-08-20T07:56:07.490Z,54.05
2018-08-20T08:00:50.904Z,51.65
2018-08-20T08:05:35.393Z,51.50
2018-08-20T08:10:18.770Z,52.51
2018-08-20T08:15:02.310Z,50.20
2018-08-20T08:19:45.722Z,48.90
2018-08-20T08:24:29.283Z,48.81
2018-08-20T08:29:12.769Z,45.97
2018-08-20T08:33:56.272Z,44.92
2018-08-20T08:38:40.956Z,44.56
2018-08-20T08:43:24.407Z,40.79
2018-08-20T08:48:07.709Z,40.83
2018-08-20T08:52:51.203Z,41.44
2018-08-20T08:57:36.773Z,38.72
2018-08-20T09:02:20.486Z,45.76
2018-08-20T09:07:04.076Z,41.49
2018-08-20T09:11:47.522Z,44.67
2018-08-20T09:16:31.207Z,45.80
2018-08-20T09:21:14.485Z,39.70
2018-08-20T09:25:57.934Z,38.77
2018-08-20T09:30:41.320Z,38.03
2018-08-20T09:35:25.061Z,37.37
2018-08-20T09:40:09.634Z,38.39
2018-08-20T09:44:56.581Z,38.99
2018-08-20T09:49:40.038Z,39.74
2018-08-20T09:54:23.688Z,42.71
2018-08-20T09:59:07.034Z,40.02
2018-08-20T10:03:50.391Z,39.92
2018-08-20T10:08:33.752Z,42.83
2018-08-20T10:13:18.285Z,40.31
2018-08-20T10:18:01.622Z,38.17
2018-08-20T10:22:44.863Z,40.24
2018-08-20T10:27:28.472Z,34.35
2018-08-20T10:32:11.924Z,40.78
2018-08-20T10:36:56.332Z,38.45
2018-08-20T10:41:39.758Z,40.52
2018-08-20T10:46:27.133Z,39.98
2018-08-20T10:51:17.655Z,42.86
2018-08-20T10:56:01.569Z,41.55
2018-08-20T11:00:48.002Z,40.32
2018-08-20T11:05:36.154Z,41.12
2018-08-20T11:10:19.563Z,40.12
2018-08-20T11:15:05.043Z,40.24
2018-08-20T11:19:49.734Z,42.27
2018-08-20T11:24:35.907Z,39.79
2018-08-20T11:29:19.935Z,41.60
2018-08-20T11:34:06.408Z,39.99
2018-08-20T11:38:49.856Z,40.43
2018-08-20T11:43:33.546Z,44.38
2018-08-20T11:48:16.998Z,41.72
2018-08-20T11:53:00.609Z,39.44
2018-08-20T11:57:43.787Z,41.06
2018-08-20T12:02:27.230Z,40.18
2018-08-20T12:07:10.896Z,41.97
2018-08-20T12:11:54.285Z,40.54
2018-08-20T12:16:37.773Z,41.28
2018-08-20T12:21:22.430Z,41.70
2018-08-20T12:26:05.691Z,42.73
2018-08-20T12:30:49.256Z,42.30
2018-08-20T12:35:32.584Z,42.83
2018-08-20T12:40:15.974Z,40.46
2018-08-20T12:44:59.390Z,42.73
2018-08-20T12:49:42.916Z,42.81
2018-08-20T12:54:26.517Z,41.98
2018-08-20T12:59:10.296Z,42.94
2018-08-20T13:03:54.662Z,43.17
2018-08-20T13:08:37.971Z,42.87
2018-08-20T13:13:21.554Z,43.48
2018-08-20T13:18:04.924Z,43.84
2018-08-20T13:22:49.070Z,43.83
2018-08-20T13:27:32.351Z,43.91
2018-08-20T13:32:15.570Z,44.65
2018-08-20T13:37:04.641Z,44.25
2018-08-20T13:41:48.368Z,44.66
2018-08-20T13:46:40.495Z,44.07
2018-08-20T13:51:28.077Z,44.10
2018-08-20T13:56:13.794Z,45.41
2018-08-20T14:00:58.750Z,44.55
2018-08-20T14:05:43.084Z,44.19
2018-08-20T14:10:37.230Z,43.24
2018-08-20T14:15:20.825Z,43.73
2018-08-20T14:20:05.279Z,45.03
2018-08-20T14:24:48.624Z,45.05
2018-08-20T14:29:32.079Z,45.89
2018-08-20T14:34:15.685Z,46.16
2018-08-20T14:39:00.181Z,45.79
2018-08-20T14:43:43.781Z,46.04
2018-08-20T14:48:27.195Z,44.76
2018-08-20T14:53:10.712Z,45.55
2018-08-20T14:57:54.385Z,44.85
2018-08-20T15:02:38.864Z,44.64
2018-08-20T15:07:22.124Z,45.52
2018-08-20T15:12:05.479Z,44.68
2018-08-20T15:16:51.518Z,46.01
2018-08-20T15:21:35.348Z,46.67
2018-08-20T15:26:18.952Z,46.03
2018-08-20T15:31:02.435Z,46.24
2018-08-20T15:35:45.969Z,45.74
2018-08-20T15:40:29.326Z,46.24
2018-08-20T15:45:23.466Z,46.35
2018-08-20T15:50:06.838Z,46.78
2018-08-20T15:54:50.308Z,46.95
2018-08-20T15:59:34.030Z,47.11
2018-08-20T16:04:17.659Z,46.63
2018-08-20T16:09:01.080Z,46.01
2018-08-20T16:13:44.661Z,46.51
2018-08-20T16:18:29.034Z,49.04
2018-08-20T16:23:13.679Z,47.47
2018-08-20T16:27:58.572Z,47.20
2018-08-20T16:32:43.079Z,47.47
2018-08-20T16:37:28.191Z,48.44
2018-08-20T16:42:12.066Z,48.28
2018-08-20T16:46:56.616Z,49.93
2018-08-20T16:51:40.652Z,48.61
2018-08-20T16:56:24.962Z,49.27
2018-08-20T17:01:34.174Z,49.40
2018-08-20T17:06:18.180Z,48.26
2018-08-20T17:11:02.030Z,47.28
2018-08-20T17:15:45.637Z,47.46
2018-08-20T17:20:28.966Z,47.33
2018-08-20T17:25:13.665Z,46.88
2018-08-20T17:29:57.298Z,47.02
2018-08-20T17:34:42.779Z,48.01
2018-08-20T17:39:26.231Z,47.64
2018-08-20T17:44:10.243Z,46.98
2018-08-20T17:48:53.914Z,46.31
2018-08-20T17:53:51.227Z,46.69
2018-08-20T17:58:42.151Z,46.64
2018-08-20T18:03:34.386Z,46.70
2018-08-20T18:08:20.612Z,47.34
2018-08-20T18:13:04.943Z,47.26
2018-08-20T18:17:49.611Z,47.84
2018-08-20T18:22:33.166Z,48.17
2018-08-20T18:27:16.620Z,48.77
2018-08-20T18:32:03.833Z,48.26
2018-08-20T18:36:47.420Z,49.58
2018-08-20T18:42:08.652Z,48.37
2018-08-20T18:46:53.978Z,49.82
2018-08-20T18:51:37.510Z,49.14
2018-08-20T18:56:21.255Z,49.05
2018-08-20T19:01:04.692Z,49.54
2018-08-20T19:05:52.154Z,50.04
2018-08-20T19:10:35.676Z,51.77
2018-08-20T19:15:46.657Z,49.68
2018-08-20T19:20:29.897Z,50.99
2018-08-20T19:25:14.541Z,50.47
2018-08-20T19:29:58.951Z,50.10
2018-08-20T19:34:42.711Z,51.61
2018-08-20T19:39:26.054Z,56.86
2018-08-20T19:44:09.566Z,57.31
2018-08-20T19:48:57.256Z,54.61
2018-08-20T19:53:40.745Z,55.15
2018-08-20T19:58:38.406Z,55.84
2018-08-20T20:03:22.012Z,51.66
2018-08-20T20:08:05.477Z,51.38
2018-08-20T20:12:53.777Z,52.60
2018-08-20T20:17:37.187Z,58.33
2018-08-20T20:22:21.689Z,62.64
2018-08-20T20:27:05.255Z,64.00
2018-08-20T20:31:48.790Z,62.33
2018-08-20T20:36:33.028Z,58.73
2018-08-20T20:41:16.359Z,55.89
2018-08-20T20:45:59.928Z,55.34
2018-08-20T20:50:43.250Z,56.52
2018-08-20T20:55:27.714Z,55.18
2018-08-20T21:00:11.012Z,56.82
2018-08-20T21:05:03.850Z,58.16
2018-08-20T21:09:48.874Z,57.27
2018-08-20T21:14:32.240Z,56.15
2018-08-20T21:19:15.720Z,57.35
2018-08-20T21:24:00.142Z,57.90
2018-08-20T21:28:48.566Z,56.12
2018-08-20T21:33:31.936Z,59.98
2018-08-20T21:38:15.327Z,57.28
2018-08-20T21:42:59.769Z,58.53
2018-08-20T21:47:43.020Z,57.25
2018-08-20T21:52:26.641Z,59.17
2018-08-20T21:57:10.017Z,58.07
2018-08-20T22:01:56.538Z,60.54
2018-08-20T22:06:40.023Z,58.92
2018-08-20T22:11:24.554Z,62.48
2018-08-20T22:16:24.271Z,61.91
2018-08-20T22:21:11.757Z,59.41
2018-08-20T22:25:57.324Z,60.07
2018-08-20T22:30:45.021Z,63.58
2018-08-20T22:35:28.620Z,65.22
2018-08-20T22:40:11.984Z,64.52
2018-08-20T22:44:56.345Z,64.78
2018-08-20T22:49:39.685Z,64.01
2018-08-20T22:54:23.314Z,66.28
2018-08-20T22:59:09.412Z,67.72
2018-08-20T23:03:52.859Z,65.91
2018-08-20T23:08:36.214Z,64.74
2018-08-20T23:13:21.679Z,65.03
2018-08-20T23:18:05.330Z,63.24
2018-08-20T23:22:48.761Z,59.88
2018-08-20T23:27:35.696Z,58.40
2018-08-20T23:32:19.416Z,57.60
2018-08-20T23:37:02.745Z,58.59
2018-08-20T23:41:47.188Z,60.18
2018-08-20T23:46:34.347Z,59.49
2018-08-20T23:51:17.799Z,60.80
2018-08-20T23:56:01.248Z,57.70
